sensor_id;sensor_type;location;lat;lon;timestamp;P1;durP1;ratioP1;P2;durP2;ratioP2
45318;SDS011;31057;48.498;32.260;2022-10-16T00:00:36;17.45;;;10.48;;
45318;SDS011;31057;48.498;32.260;2022-10-16T00:03:40;18.20;;;12.30;;
45318;SDS011;31057;48.498;32.260;2022-10-16T00:06:43;21.17;;;11.68;;
45318;SDS011;31057;48.498;32.260;2022-10-16T00:09:45;20.38;;;11.32;;
45318;SDS011;31057;48.498;32.260;2022-10-16T00:12:47;23.67;;;12.80;;
45318;SDS011;31057;48.498;32.260;2022-10-16T00:15:49;25.90;;;12.90;;
45318;SDS011;31057;48.498;32.260;2022-10-16T00:18:51;16.70;;;11.68;;
45318;SDS011;31057;48.498;32.260;2022-10-16T00:21:53;22.65;;;13.90;;
45318;SDS011;31057;48.498;32.260;2022-10-16T00:24:55;20.38;;;12.93;;
45318;SDS011;31057;48.498;32.260;2022-10-16T00:27:57;21.23;;;12.50;;
45318;SDS011;31057;48.498;32.260;2022-10-16T00:30:59;20.60;;;13.40;;
45318;SDS011;31057;48.498;32.260;2022-10-16T00:34:08;29.42;;;15.73;;
45318;SDS011;31057;48.498;32.260;2022-10-16T00:37:10;21.25;;;14.55;;
45318;SDS011;31057;48.498;32.260;2022-10-16T00:40:12;25.65;;;14.98;;
45318;SDS011;31057;48.498;32.260;2022-10-16T00:43:31;25.63;;;16.42;;
45318;SDS011;31057;48.498;32.260;2022-10-16T00:46:47;26.92;;;17.35;;
45318;SDS011;31057;48.498;32.260;2022-10-16T00:52:56;22.95;;;14.77;;
45318;SDS011;31057;48.498;32.260;2022-10-16T00:55:58;26.27;;;15.50;;
45318;SDS011;31057;48.498;32.260;2022-10-16T00:59:01;24.10;;;15.00;;
45318;SDS011;31057;48.498;32.260;2022-10-16T01:02:09;24.30;;;16.10;;
45318;SDS011;31057;48.498;32.260;2022-10-16T01:05:14;25.85;;;15.68;;
45318;SDS011;31057;48.498;32.260;2022-10-16T01:08:18;26.42;;;15.63;;
45318;SDS011;31057;48.498;32.260;2022-10-16T01:11:33;29.52;;;16.65;;
45318;SDS011;31057;48.498;32.260;2022-10-16T01:14:56;25.58;;;16.75;;
45318;SDS011;31057;48.498;32.260;2022-10-16T01:21:28;35.28;;;20.20;;
45318;SDS011;31057;48.498;32.260;2022-10-16T01:24:38;22.42;;;16.52;;
45318;SDS011;31057;48.498;32.260;2022-10-16T01:27:42;23.70;;;16.52;;
45318;SDS011;31057;48.498;32.260;2022-10-16T01:30:48;27.05;;;17.75;;
45318;SDS011;31057;48.498;32.260;2022-10-16T01:33:58;30.38;;;16.27;;
45318;SDS011;31057;48.498;32.260;2022-10-16T01:37:06;27.10;;;18.42;;
45318;SDS011;31057;48.498;32.260;2022-10-16T01:40:13;30.17;;;17.00;;
45318;SDS011;31057;48.498;32.260;2022-10-16T01:43:20;25.38;;;14.55;;
45318;SDS011;31057;48.498;32.260;2022-10-16T01:46:27;26.50;;;17.25;;
45318;SDS011;31057;48.498;32.260;2022-10-16T01:49:34;26.33;;;17.13;;
45318;SDS011;31057;48.498;32.260;2022-10-16T01:52:39;25.73;;;15.75;;
45318;SDS011;31057;48.498;32.260;2022-10-16T01:55:46;26.10;;;15.13;;
45318;SDS011;31057;48.498;32.260;2022-10-16T01:58:54;26.52;;;16.00;;
45318;SDS011;31057;48.498;32.260;2022-10-16T02:02:00;24.92;;;13.23;;
45318;SDS011;31057;48.498;32.260;2022-10-16T02:05:10;23.88;;;14.48;;
45318;SDS011;31057;48.498;32.260;2022-10-16T02:08:22;27.73;;;16.67;;
45318;SDS011;31057;48.498;32.260;2022-10-16T02:11:27;22.45;;;14.98;;
45318;SDS011;31057;48.498;32.260;2022-10-16T02:14:29;24.85;;;16.52;;
45318;SDS011;31057;48.498;32.260;2022-10-16T02:17:31;23.48;;;16.10;;
45318;SDS011;31057;48.498;32.260;2022-10-16T02:20:34;27.13;;;16.23;;
45318;SDS011;31057;48.498;32.260;2022-10-16T02:27:01;30.90;;;14.90;;
45318;SDS011;31057;48.498;32.260;2022-10-16T02:33:28;22.48;;;14.18;;
45318;SDS011;31057;48.498;32.260;2022-10-16T02:36:32;22.63;;;14.70;;
45318;SDS011;31057;48.498;32.260;2022-10-16T02:39:36;26.27;;;15.70;;
45318;SDS011;31057;48.498;32.260;2022-10-16T02:42:39;26.85;;;15.90;;
45318;SDS011;31057;48.498;32.260;2022-10-16T02:45:42;25.40;;;15.65;;
45318;SDS011;31057;48.498;32.260;2022-10-16T02:48:44;23.65;;;13.55;;
45318;SDS011;31057;48.498;32.260;2022-10-16T02:51:46;34.67;;;16.23;;
45318;SDS011;31057;48.498;32.260;2022-10-16T02:54:49;22.45;;;14.10;;
45318;SDS011;31057;48.498;32.260;2022-10-16T02:57:51;25.40;;;14.98;;
45318;SDS011;31057;48.498;32.260;2022-10-16T03:00:54;21.40;;;14.38;;
45318;SDS011;31057;48.498;32.260;2022-10-16T03:06:58;26.55;;;14.50;;
45318;SDS011;31057;48.498;32.260;2022-10-16T03:10:00;21.13;;;14.10;;
45318;SDS011;31057;48.498;32.260;2022-10-16T03:13:02;27.10;;;14.60;;
45318;SDS011;31057;48.498;32.260;2022-10-16T03:16:04;22.70;;;13.57;;
45318;SDS011;31057;48.498;32.260;2022-10-16T03:19:06;21.17;;;14.00;;
45318;SDS011;31057;48.498;32.260;2022-10-16T03:22:08;23.23;;;14.52;;
45318;SDS011;31057;48.498;32.260;2022-10-16T03:25:10;24.30;;;13.52;;
45318;SDS011;31057;48.498;32.260;2022-10-16T03:28:11;25.58;;;16.13;;
45318;SDS011;31057;48.498;32.260;2022-10-16T03:31:13;22.83;;;14.23;;
45318;SDS011;31057;48.498;32.260;2022-10-16T03:34:15;25.45;;;15.05;;
45318;SDS011;31057;48.498;32.260;2022-10-16T03:37:17;27.27;;;15.35;;
45318;SDS011;31057;48.498;32.260;2022-10-16T03:40:19;25.85;;;16.23;;
45318;SDS011;31057;48.498;32.260;2022-10-16T03:43:21;26.75;;;15.55;;
45318;SDS011;31057;48.498;32.260;2022-10-16T03:46:23;26.00;;;16.58;;
45318;SDS011;31057;48.498;32.260;2022-10-16T03:49:25;24.58;;;14.95;;
45318;SDS011;31057;48.498;32.260;2022-10-16T03:52:27;23.20;;;14.88;;
45318;SDS011;31057;48.498;32.260;2022-10-16T03:55:28;22.73;;;15.18;;
45318;SDS011;31057;48.498;32.260;2022-10-16T03:58:30;23.27;;;14.90;;
45318;SDS011;31057;48.498;32.260;2022-10-16T04:01:32;29.75;;;15.85;;
45318;SDS011;31057;48.498;32.260;2022-10-16T04:04:36;29.92;;;17.52;;
45318;SDS011;31057;48.498;32.260;2022-10-16T04:07:38;24.50;;;16.73;;
45318;SDS011;31057;48.498;32.260;2022-10-16T04:10:41;34.15;;;17.48;;
45318;SDS011;31057;48.498;32.260;2022-10-16T04:13:44;28.83;;;17.00;;
45318;SDS011;31057;48.498;32.260;2022-10-16T04:16:46;29.13;;;19.70;;
45318;SDS011;31057;48.498;32.260;2022-10-16T04:19:48;31.08;;;18.70;;
45318;SDS011;31057;48.498;32.260;2022-10-16T04:22:49;36.67;;;19.33;;
45318;SDS011;31057;48.498;32.260;2022-10-16T04:25:51;36.30;;;19.58;;
45318;SDS011;31057;48.498;32.260;2022-10-16T04:28:53;41.80;;;20.25;;
45318;SDS011;31057;48.498;32.260;2022-10-16T04:31:55;32.55;;;19.48;;
45318;SDS011;31057;48.498;32.260;2022-10-16T04:34:57;41.95;;;21.50;;
45318;SDS011;31057;48.498;32.260;2022-10-16T04:37:59;33.75;;;19.80;;
45318;SDS011;31057;48.498;32.260;2022-10-16T04:41:01;34.78;;;19.13;;
45318;SDS011;31057;48.498;32.260;2022-10-16T04:44:03;35.15;;;18.88;;
45318;SDS011;31057;48.498;32.260;2022-10-16T04:47:05;27.98;;;18.90;;
45318;SDS011;31057;48.498;32.260;2022-10-16T04:50:07;30.27;;;18.30;;
45318;SDS011;31057;48.498;32.260;2022-10-16T04:53:09;34.13;;;17.98;;
45318;SDS011;31057;48.498;32.260;2022-10-16T04:56:11;31.67;;;19.35;;
45318;SDS011;31057;48.498;32.260;2022-10-16T04:59:16;38.70;;;19.20;;
45318;SDS011;31057;48.498;32.260;2022-10-16T05:02:19;33.05;;;19.77;;
45318;SDS011;31057;48.498;32.260;2022-10-16T05:05:21;33.13;;;19.45;;
45318;SDS011;31057;48.498;32.260;2022-10-16T05:08:24;35.63;;;20.60;;
45318;SDS011;31057;48.498;32.260;2022-10-16T05:11:26;36.60;;;20.98;;
45318;SDS011;31057;48.498;32.260;2022-10-16T05:14:27;33.72;;;22.13;;
45318;SDS011;31057;48.498;32.260;2022-10-16T05:17:29;36.72;;;21.02;;
45318;SDS011;31057;48.498;32.260;2022-10-16T05:20:31;29.17;;;19.67;;
45318;SDS011;31057;48.498;32.260;2022-10-16T05:23:33;32.42;;;21.20;;
45318;SDS011;31057;48.498;32.260;2022-10-16T05:26:35;29.52;;;19.95;;
45318;SDS011;31057;48.498;32.260;2022-10-16T05:29:37;36.53;;;21.63;;
45318;SDS011;31057;48.498;32.260;2022-10-16T05:32:39;32.88;;;22.67;;
45318;SDS011;31057;48.498;32.260;2022-10-16T05:35:41;33.97;;;19.98;;
45318;SDS011;31057;48.498;32.260;2022-10-16T05:38:43;34.75;;;19.80;;
45318;SDS011;31057;48.498;32.260;2022-10-16T05:41:45;31.47;;;19.40;;
45318;SDS011;31057;48.498;32.260;2022-10-16T05:44:47;31.30;;;21.15;;
45318;SDS011;31057;48.498;32.260;2022-10-16T05:47:49;30.77;;;19.75;;
45318;SDS011;31057;48.498;32.260;2022-10-16T05:51:01;33.72;;;20.30;;
45318;SDS011;31057;48.498;32.260;2022-10-16T05:54:05;36.95;;;18.00;;
45318;SDS011;31057;48.498;32.260;2022-10-16T05:57:07;27.27;;;16.40;;
45318;SDS011;31057;48.498;32.260;2022-10-16T06:00:09;28.08;;;17.25;;
45318;SDS011;31057;48.498;32.260;2022-10-16T06:03:12;27.52;;;17.48;;
45318;SDS011;31057;48.498;32.260;2022-10-16T06:06:15;25.88;;;16.52;;
45318;SDS011;31057;48.498;32.260;2022-10-16T06:09:25;27.23;;;15.20;;
45318;SDS011;31057;48.498;32.260;2022-10-16T06:12:27;25.30;;;17.67;;
45318;SDS011;31057;48.498;32.260;2022-10-16T06:15:29;28.15;;;17.20;;
45318;SDS011;31057;48.498;32.260;2022-10-16T06:18:31;27.65;;;16.75;;
45318;SDS011;31057;48.498;32.260;2022-10-16T06:21:32;30.10;;;16.75;;
45318;SDS011;31057;48.498;32.260;2022-10-16T06:24:34;27.77;;;15.48;;
45318;SDS011;31057;48.498;32.260;2022-10-16T06:27:39;27.42;;;16.88;;
45318;SDS011;31057;48.498;32.260;2022-10-16T06:30:42;26.23;;;16.15;;
45318;SDS011;31057;48.498;32.260;2022-10-16T06:33:49;37.25;;;17.42;;
45318;SDS011;31057;48.498;32.260;2022-10-16T06:36:52;29.33;;;15.82;;
45318;SDS011;31057;48.498;32.260;2022-10-16T06:39:56;23.88;;;15.75;;
45318;SDS011;31057;48.498;32.260;2022-10-16T06:42:58;30.45;;;16.85;;
45318;SDS011;31057;48.498;32.260;2022-10-16T06:46:00;27.13;;;14.77;;
45318;SDS011;31057;48.498;32.260;2022-10-16T06:49:03;15.82;;;12.18;;
45318;SDS011;31057;48.498;32.260;2022-10-16T06:52:05;24.30;;;13.52;;
45318;SDS011;31057;48.498;32.260;2022-10-16T06:55:07;27.77;;;14.43;;
45318;SDS011;31057;48.498;32.260;2022-10-16T06:58:09;19.15;;;12.13;;
45318;SDS011;31057;48.498;32.260;2022-10-16T07:01:11;27.98;;;14.30;;
45318;SDS011;31057;48.498;32.260;2022-10-16T07:04:14;12.93;;;9.15;;
45318;SDS011;31057;48.498;32.260;2022-10-16T07:07:16;16.17;;;10.55;;
45318;SDS011;31057;48.498;32.260;2022-10-16T07:10:18;14.88;;;9.80;;
45318;SDS011;31057;48.498;32.260;2022-10-16T07:13:20;11.05;;;7.40;;
45318;SDS011;31057;48.498;32.260;2022-10-16T07:16:22;18.90;;;9.57;;
45318;SDS011;31057;48.498;32.260;2022-10-16T07:19:26;14.35;;;7.30;;
45318;SDS011;31057;48.498;32.260;2022-10-16T07:22:33;13.07;;;7.55;;
45318;SDS011;31057;48.498;32.260;2022-10-16T07:25:36;13.40;;;7.03;;
45318;SDS011;31057;48.498;32.260;2022-10-16T07:28:38;16.87;;;8.00;;
45318;SDS011;31057;48.498;32.260;2022-10-16T07:31:41;12.55;;;7.28;;
45318;SDS011;31057;48.498;32.260;2022-10-16T07:34:43;13.48;;;7.47;;
45318;SDS011;31057;48.498;32.260;2022-10-16T07:37:46;7.40;;;5.63;;
45318;SDS011;31057;48.498;32.260;2022-10-16T07:40:55;13.13;;;7.50;;
45318;SDS011;31057;48.498;32.260;2022-10-16T07:43:59;10.90;;;6.97;;
45318;SDS011;31057;48.498;32.260;2022-10-16T07:47:01;14.45;;;7.35;;
45318;SDS011;31057;48.498;32.260;2022-10-16T07:50:04;8.70;;;6.45;;
45318;SDS011;31057;48.498;32.260;2022-10-16T07:53:06;11.95;;;7.47;;
45318;SDS011;31057;48.498;32.260;2022-10-16T07:56:08;11.95;;;7.15;;
45318;SDS011;31057;48.498;32.260;2022-10-16T07:59:11;10.03;;;7.30;;
45318;SDS011;31057;48.498;32.260;2022-10-16T08:02:13;15.63;;;9.18;;
45318;SDS011;31057;48.498;32.260;2022-10-16T08:05:15;20.65;;;10.15;;
45318;SDS011;31057;48.498;32.260;2022-10-16T08:08:17;10.63;;;6.95;;
45318;SDS011;31057;48.498;32.260;2022-10-16T08:11:20;17.88;;;8.82;;
45318;SDS011;31057;48.498;32.260;2022-10-16T08:14:22;14.63;;;8.90;;
45318;SDS011;31057;48.498;32.260;2022-10-16T08:17:23;9.23;;;6.18;;
45318;SDS011;31057;48.498;32.260;2022-10-16T08:20:26;29.55;;;12.13;;
45318;SDS011;31057;48.498;32.260;2022-10-16T08:23:28;15.00;;;6.95;;
45318;SDS011;31057;48.498;32.260;2022-10-16T08:26:30;11.18;;;6.20;;
45318;SDS011;31057;48.498;32.260;2022-10-16T08:29:32;7.35;;;5.13;;
45318;SDS011;31057;48.498;32.260;2022-10-16T08:32:34;6.38;;;4.80;;
45318;SDS011;31057;48.498;32.260;2022-10-16T08:35:36;8.93;;;6.00;;
45318;SDS011;31057;48.498;32.260;2022-10-16T08:38:38;8.18;;;5.18;;
45318;SDS011;31057;48.498;32.260;2022-10-16T08:48:17;5.53;;;4.53;;
45318;SDS011;31057;48.498;32.260;2022-10-16T08:51:34;6.43;;;4.57;;
45318;SDS011;31057;48.498;32.260;2022-10-16T08:54:45;8.38;;;4.97;;
45318;SDS011;31057;48.498;32.260;2022-10-16T08:57:51;8.10;;;5.03;;
45318;SDS011;31057;48.498;32.260;2022-10-16T09:00:54;7.53;;;5.68;;
45318;SDS011;31057;48.498;32.260;2022-10-16T09:14:36;8.30;;;4.90;;
45318;SDS011;31057;48.498;32.260;2022-10-16T09:17:44;9.63;;;4.97;;
45318;SDS011;31057;48.498;32.260;2022-10-16T09:21:12;6.10;;;3.97;;
45318;SDS011;31057;48.498;32.260;2022-10-16T09:24:16;6.85;;;4.68;;
45318;SDS011;31057;48.498;32.260;2022-10-16T09:27:19;5.32;;;4.63;;
45318;SDS011;31057;48.498;32.260;2022-10-16T09:30:22;7.63;;;5.38;;
45318;SDS011;31057;48.498;32.260;2022-10-16T09:33:30;5.22;;;4.30;;
45318;SDS011;31057;48.498;32.260;2022-10-16T09:36:40;7.20;;;4.50;;
45318;SDS011;31057;48.498;32.260;2022-10-16T09:39:46;7.25;;;4.63;;
45318;SDS011;31057;48.498;32.260;2022-10-16T09:42:50;5.05;;;3.95;;
45318;SDS011;31057;48.498;32.260;2022-10-16T09:49:25;8.18;;;4.38;;
45318;SDS011;31057;48.498;32.260;2022-10-16T09:52:28;8.00;;;4.20;;
45318;SDS011;31057;48.498;32.260;2022-10-16T09:55:30;7.55;;;3.75;;
45318;SDS011;31057;48.498;32.260;2022-10-16T09:58:32;5.18;;;4.00;;
45318;SDS011;31057;48.498;32.260;2022-10-16T10:04:47;5.18;;;3.08;;
45318;SDS011;31057;48.498;32.260;2022-10-16T10:07:59;4.70;;;3.72;;
45318;SDS011;31057;48.498;32.260;2022-10-16T10:11:07;5.03;;;3.63;;
45318;SDS011;31057;48.498;32.260;2022-10-16T10:17:24;4.57;;;2.65;;
45318;SDS011;31057;48.498;32.260;2022-10-16T10:20:30;6.05;;;3.45;;
45318;SDS011;31057;48.498;32.260;2022-10-16T10:23:35;6.53;;;3.42;;
45318;SDS011;31057;48.498;32.260;2022-10-16T10:26:37;4.82;;;3.70;;
45318;SDS011;31057;48.498;32.260;2022-10-16T10:29:54;4.43;;;3.15;;
45318;SDS011;31057;48.498;32.260;2022-10-16T10:40:01;4.55;;;3.00;;
45318;SDS011;31057;48.498;32.260;2022-10-16T10:57:06;6.53;;;3.38;;
45318;SDS011;31057;48.498;32.260;2022-10-16T11:07:13;5.45;;;3.17;;
45318;SDS011;31057;48.498;32.260;2022-10-16T11:10:23;6.25;;;3.65;;
45318;SDS011;31057;48.498;32.260;2022-10-16T11:13:30;4.72;;;2.95;;
45318;SDS011;31057;48.498;32.260;2022-10-16T11:16:45;5.00;;;2.83;;
45318;SDS011;31057;48.498;32.260;2022-10-16T11:19:57;3.72;;;2.60;;
45318;SDS011;31057;48.498;32.260;2022-10-16T11:23:16;4.75;;;2.60;;
45318;SDS011;31057;48.498;32.260;2022-10-16T11:26:29;4.68;;;2.50;;
45318;SDS011;31057;48.498;32.260;2022-10-16T11:29:35;4.53;;;3.05;;
45318;SDS011;31057;48.498;32.260;2022-10-16T11:39:49;7.45;;;2.55;;
45318;SDS011;31057;48.498;32.260;2022-10-16T11:43:06;16.20;;;10.80;;
45318;SDS011;31057;48.498;32.260;2022-10-16T11:46:17;6.70;;;4.55;;
45318;SDS011;31057;48.498;32.260;2022-10-16T11:49:22;13.80;;;6.30;;
45318;SDS011;31057;48.498;32.260;2022-10-16T11:52:33;5.40;;;3.60;;
45318;SDS011;31057;48.498;32.260;2022-10-16T11:55:42;5.53;;;2.97;;
45318;SDS011;31057;48.498;32.260;2022-10-16T11:59:00;8.63;;;4.00;;
45318;SDS011;31057;48.498;32.260;2022-10-16T12:08:52;6.03;;;3.53;;
45318;SDS011;31057;48.498;32.260;2022-10-16T12:11:55;6.68;;;2.72;;
45318;SDS011;31057;48.498;32.260;2022-10-16T12:15:31;5.68;;;3.05;;
45318;SDS011;31057;48.498;32.260;2022-10-16T12:18:47;11.35;;;4.05;;
45318;SDS011;31057;48.498;32.260;2022-10-16T12:21:50;5.77;;;3.83;;
45318;SDS011;31057;48.498;32.260;2022-10-16T12:24:54;3.53;;;2.70;;
45318;SDS011;31057;48.498;32.260;2022-10-16T12:27:57;3.63;;;2.30;;
45318;SDS011;31057;48.498;32.260;2022-10-16T12:31:20;4.50;;;3.03;;
45318;SDS011;31057;48.498;32.260;2022-10-16T12:34:28;5.85;;;2.47;;
45318;SDS011;31057;48.498;32.260;2022-10-16T12:37:36;3.88;;;2.70;;
45318;SDS011;31057;48.498;32.260;2022-10-16T12:40:39;7.20;;;3.00;;
45318;SDS011;31057;48.498;32.260;2022-10-16T12:43:46;8.88;;;3.08;;
45318;SDS011;31057;48.498;32.260;2022-10-16T12:46:49;6.45;;;3.10;;
45318;SDS011;31057;48.498;32.260;2022-10-16T12:49:53;7.13;;;3.22;;
45318;SDS011;31057;48.498;32.260;2022-10-16T12:52:55;6.45;;;2.70;;
45318;SDS011;31057;48.498;32.260;2022-10-16T13:09:43;4.97;;;2.95;;
45318;SDS011;31057;48.498;32.260;2022-10-16T13:22:55;6.18;;;3.53;;
45318;SDS011;31057;48.498;32.260;2022-10-16T13:29:45;4.88;;;3.28;;
45318;SDS011;31057;48.498;32.260;2022-10-16T13:33:03;7.07;;;2.75;;
45318;SDS011;31057;48.498;32.260;2022-10-16T13:36:52;13.00;;;4.00;;
45318;SDS011;31057;48.498;32.260;2022-10-16T13:39:44;6.93;;;3.88;;
45318;SDS011;31057;48.498;32.260;2022-10-16T13:42:45;4.82;;;3.33;;
45318;SDS011;31057;48.498;32.260;2022-10-16T13:45:56;3.80;;;2.70;;
45318;SDS011;31057;48.498;32.260;2022-10-16T13:49:04;6.10;;;3.83;;
45318;SDS011;31057;48.498;32.260;2022-10-16T13:52:19;7.18;;;3.65;;
45318;SDS011;31057;48.498;32.260;2022-10-16T13:55:22;8.10;;;3.83;;
45318;SDS011;31057;48.498;32.260;2022-10-16T13:58:24;6.68;;;3.55;;
45318;SDS011;31057;48.498;32.260;2022-10-16T14:01:27;9.23;;;5.47;;
45318;SDS011;31057;48.498;32.260;2022-10-16T14:04:33;5.78;;;3.53;;
45318;SDS011;31057;48.498;32.260;2022-10-16T14:07:39;11.25;;;3.75;;
45318;SDS011;31057;48.498;32.260;2022-10-16T14:10:41;10.20;;;4.38;;
45318;SDS011;31057;48.498;32.260;2022-10-16T14:13:44;6.53;;;3.63;;
45318;SDS011;31057;48.498;32.260;2022-10-16T14:19:50;5.72;;;3.42;;
45318;SDS011;31057;48.498;32.260;2022-10-16T14:23:02;7.10;;;4.78;;
45318;SDS011;31057;48.498;32.260;2022-10-16T14:29:14;9.18;;;5.30;;
45318;SDS011;31057;48.498;32.260;2022-10-16T14:32:22;7.85;;;5.85;;
45318;SDS011;31057;48.498;32.260;2022-10-16T14:35:35;10.38;;;6.05;;
45318;SDS011;31057;48.498;32.260;2022-10-16T14:38:41;12.13;;;6.88;;
45318;SDS011;31057;48.498;32.260;2022-10-16T14:41:49;18.13;;;8.68;;
45318;SDS011;31057;48.498;32.260;2022-10-16T14:44:52;15.15;;;7.93;;
45318;SDS011;31057;48.498;32.260;2022-10-16T14:47:56;10.07;;;5.32;;
45318;SDS011;31057;48.498;32.260;2022-10-16T14:50:59;14.07;;;6.40;;
45318;SDS011;31057;48.498;32.260;2022-10-16T14:54:01;11.65;;;6.32;;
45318;SDS011;31057;48.498;32.260;2022-10-16T14:57:04;12.10;;;5.18;;
45318;SDS011;31057;48.498;32.260;2022-10-16T15:00:09;13.35;;;6.93;;
45318;SDS011;31057;48.498;32.260;2022-10-16T15:03:17;13.27;;;6.95;;
45318;SDS011;31057;48.498;32.260;2022-10-16T15:06:19;18.35;;;8.73;;
45318;SDS011;31057;48.498;32.260;2022-10-16T15:09:21;16.88;;;9.18;;
45318;SDS011;31057;48.498;32.260;2022-10-16T15:12:23;14.73;;;9.15;;
45318;SDS011;31057;48.498;32.260;2022-10-16T15:15:28;15.35;;;7.25;;
45318;SDS011;31057;48.498;32.260;2022-10-16T15:18:35;18.60;;;8.65;;
45318;SDS011;31057;48.498;32.260;2022-10-16T15:21:37;18.45;;;9.57;;
45318;SDS011;31057;48.498;32.260;2022-10-16T15:24:38;16.40;;;10.95;;
45318;SDS011;31057;48.498;32.260;2022-10-16T15:27:40;17.52;;;10.38;;
45318;SDS011;31057;48.498;32.260;2022-10-16T15:30:42;26.83;;;16.55;;
45318;SDS011;31057;48.498;32.260;2022-10-16T15:33:51;22.48;;;14.88;;
45318;SDS011;31057;48.498;32.260;2022-10-16T15:36:57;25.65;;;12.55;;
45318;SDS011;31057;48.498;32.260;2022-10-16T15:40:00;22.05;;;12.90;;
45318;SDS011;31057;48.498;32.260;2022-10-16T15:43:02;18.73;;;12.65;;
45318;SDS011;31057;48.498;32.260;2022-10-16T15:46:05;22.88;;;12.23;;
45318;SDS011;31057;48.498;32.260;2022-10-16T15:49:11;19.08;;;11.35;;
45318;SDS011;31057;48.498;32.260;2022-10-16T15:52:13;35.83;;;18.33;;
45318;SDS011;31057;48.498;32.260;2022-10-16T15:55:15;41.60;;;22.50;;
45318;SDS011;31057;48.498;32.260;2022-10-16T15:58:17;44.75;;;26.00;;
45318;SDS011;31057;48.498;32.260;2022-10-16T16:01:19;37.05;;;24.35;;
45318;SDS011;31057;48.498;32.260;2022-10-16T16:04:21;35.05;;;20.92;;
45318;SDS011;31057;48.498;32.260;2022-10-16T16:07:42;43.78;;;24.90;;
45318;SDS011;31057;48.498;32.260;2022-10-16T16:10:44;43.90;;;27.77;;
45318;SDS011;31057;48.498;32.260;2022-10-16T16:13:46;47.17;;;28.90;;
45318;SDS011;31057;48.498;32.260;2022-10-16T16:16:48;41.55;;;27.77;;
45318;SDS011;31057;48.498;32.260;2022-10-16T16:19:50;29.73;;;19.35;;
45318;SDS011;31057;48.498;32.260;2022-10-16T16:22:53;26.77;;;17.95;;
45318;SDS011;31057;48.498;32.260;2022-10-16T16:26:09;41.67;;;23.95;;
45318;SDS011;31057;48.498;32.260;2022-10-16T16:29:17;30.80;;;19.63;;
45318;SDS011;31057;48.498;32.260;2022-10-16T16:32:18;25.52;;;16.80;;
45318;SDS011;31057;48.498;32.260;2022-10-16T16:35:20;21.50;;;13.68;;
45318;SDS011;31057;48.498;32.260;2022-10-16T16:38:22;21.63;;;14.20;;
45318;SDS011;31057;48.498;32.260;2022-10-16T16:41:25;18.80;;;11.90;;
45318;SDS011;31057;48.498;32.260;2022-10-16T16:44:28;19.55;;;11.13;;
45318;SDS011;31057;48.498;32.260;2022-10-16T16:47:31;11.67;;;9.53;;
45318;SDS011;31057;48.498;32.260;2022-10-16T16:50:36;15.77;;;9.95;;
45318;SDS011;31057;48.498;32.260;2022-10-16T16:53:38;17.38;;;11.25;;
45318;SDS011;31057;48.498;32.260;2022-10-16T16:56:40;17.08;;;11.77;;
45318;SDS011;31057;48.498;32.260;2022-10-16T16:59:46;17.45;;;11.93;;
45318;SDS011;31057;48.498;32.260;2022-10-16T17:02:49;20.55;;;11.55;;
45318;SDS011;31057;48.498;32.260;2022-10-16T17:05:55;24.23;;;14.02;;
45318;SDS011;31057;48.498;32.260;2022-10-16T17:09:02;23.23;;;12.55;;
45318;SDS011;31057;48.498;32.260;2022-10-16T17:12:05;28.95;;;15.95;;
45318;SDS011;31057;48.498;32.260;2022-10-16T17:15:07;22.73;;;13.07;;
45318;SDS011;31057;48.498;32.260;2022-10-16T17:18:09;24.20;;;13.90;;
45318;SDS011;31057;48.498;32.260;2022-10-16T17:21:11;23.95;;;15.32;;
45318;SDS011;31057;48.498;32.260;2022-10-16T17:24:13;23.33;;;14.87;;
45318;SDS011;31057;48.498;32.260;2022-10-16T17:27:15;36.38;;;21.40;;
45318;SDS011;31057;48.498;32.260;2022-10-16T17:30:17;28.75;;;19.33;;
45318;SDS011;31057;48.498;32.260;2022-10-16T17:33:19;41.33;;;22.42;;
45318;SDS011;31057;48.498;32.260;2022-10-16T17:36:21;39.85;;;21.52;;
45318;SDS011;31057;48.498;32.260;2022-10-16T17:39:24;33.88;;;20.23;;
45318;SDS011;31057;48.498;32.260;2022-10-16T17:42:26;42.75;;;23.52;;
45318;SDS011;31057;48.498;32.260;2022-10-16T17:45:28;40.67;;;23.67;;
45318;SDS011;31057;48.498;32.260;2022-10-16T17:48:31;39.35;;;23.88;;
45318;SDS011;31057;48.498;32.260;2022-10-16T17:51:32;48.95;;;29.08;;
45318;SDS011;31057;48.498;32.260;2022-10-16T17:54:34;41.13;;;25.17;;
45318;SDS011;31057;48.498;32.260;2022-10-16T17:57:37;56.33;;;30.10;;
45318;SDS011;31057;48.498;32.260;2022-10-16T18:00:38;38.58;;;25.23;;
45318;SDS011;31057;48.498;32.260;2022-10-16T18:03:40;46.97;;;25.65;;
45318;SDS011;31057;48.498;32.260;2022-10-16T18:06:42;38.55;;;24.52;;
45318;SDS011;31057;48.498;32.260;2022-10-16T18:09:45;46.03;;;25.40;;
45318;SDS011;31057;48.498;32.260;2022-10-16T18:13:08;50.10;;;26.73;;
45318;SDS011;31057;48.498;32.260;2022-10-16T18:16:10;60.90;;;33.35;;
45318;SDS011;31057;48.498;32.260;2022-10-16T18:19:14;45.90;;;29.75;;
45318;SDS011;31057;48.498;32.260;2022-10-16T18:22:15;58.75;;;34.78;;
45318;SDS011;31057;48.498;32.260;2022-10-16T18:25:17;57.33;;;31.75;;
45318;SDS011;31057;48.498;32.260;2022-10-16T18:28:19;66.00;;;34.20;;
45318;SDS011;31057;48.498;32.260;2022-10-16T18:31:22;55.78;;;30.35;;
45318;SDS011;31057;48.498;32.260;2022-10-16T18:34:26;49.10;;;26.73;;
45318;SDS011;31057;48.498;32.260;2022-10-16T18:37:28;49.85;;;26.27;;
45318;SDS011;31057;48.498;32.260;2022-10-16T18:40:31;49.60;;;29.27;;
45318;SDS011;31057;48.498;32.260;2022-10-16T18:43:36;53.33;;;29.00;;
45318;SDS011;31057;48.498;32.260;2022-10-16T18:46:39;57.17;;;30.08;;
45318;SDS011;31057;48.498;32.260;2022-10-16T18:49:41;56.72;;;29.73;;
45318;SDS011;31057;48.498;32.260;2022-10-16T18:52:47;51.40;;;29.45;;
45318;SDS011;31057;48.498;32.260;2022-10-16T18:55:50;50.45;;;27.35;;
45318;SDS011;31057;48.498;32.260;2022-10-16T18:58:53;52.55;;;28.95;;
45318;SDS011;31057;48.498;32.260;2022-10-16T19:01:55;53.65;;;29.02;;
45318;SDS011;31057;48.498;32.260;2022-10-16T19:04:58;48.47;;;27.92;;
45318;SDS011;31057;48.498;32.260;2022-10-16T19:08:05;43.58;;;27.10;;
45318;SDS011;31057;48.498;32.260;2022-10-16T19:11:12;42.63;;;25.50;;
45318;SDS011;31057;48.498;32.260;2022-10-16T19:14:16;48.03;;;26.05;;
45318;SDS011;31057;48.498;32.260;2022-10-16T19:17:18;52.78;;;28.08;;
45318;SDS011;31057;48.498;32.260;2022-10-16T19:20:20;47.08;;;25.60;;
45318;SDS011;31057;48.498;32.260;2022-10-16T19:23:22;42.78;;;25.20;;
45318;SDS011;31057;48.498;32.260;2022-10-16T19:26:24;44.30;;;25.88;;
45318;SDS011;31057;48.498;32.260;2022-10-16T19:29:28;44.05;;;26.40;;
45318;SDS011;31057;48.498;32.260;2022-10-16T19:32:31;43.75;;;25.48;;
45318;SDS011;31057;48.498;32.260;2022-10-16T19:35:33;42.88;;;27.58;;
45318;SDS011;31057;48.498;32.260;2022-10-16T19:38:35;48.65;;;28.27;;
45318;SDS011;31057;48.498;32.260;2022-10-16T19:41:37;47.60;;;27.38;;
45318;SDS011;31057;48.498;32.260;2022-10-16T19:44:39;46.20;;;27.90;;
45318;SDS011;31057;48.498;32.260;2022-10-16T19:47:41;60.50;;;29.83;;
45318;SDS011;31057;48.498;32.260;2022-10-16T19:50:45;52.42;;;30.95;;